sensor_id;sensor_type;location;lat;lon;timestamp;P1;durP1;ratioP1;P2;durP2;ratioP2
68806;SDS011;55800;54.272;18.558;2023-07-13T00:01:39;11.40;;;4.07;;
68806;SDS011;55800;54.272;18.558;2023-07-13T00:04:10;7.35;;;4.80;;
68806;SDS011;55800;54.272;18.558;2023-07-13T00:09:12;10.63;;;4.68;;
68806;SDS011;55800;54.272;18.558;2023-07-13T00:11:43;8.02;;;4.53;;
68806;SDS011;55800;54.272;18.558;2023-07-13T00:14:14;8.70;;;4.65;;
68806;SDS011;55800;54.272;18.558;2023-07-13T00:19:13;9.02;;;4.97;;
68806;SDS011;55800;54.272;18.558;2023-07-13T00:21:45;7.82;;;4.55;;
68806;SDS011;55800;54.272;18.558;2023-07-13T00:24:16;12.50;;;5.05;;
68806;SDS011;55800;54.272;18.558;2023-07-13T00:26:52;6.60;;;4.50;;
68806;SDS011;55800;54.272;18.558;2023-07-13T00:29:25;11.20;;;5.43;;
68806;SDS011;55800;54.272;18.558;2023-07-13T00:31:54;7.80;;;4.88;;
68806;SDS011;55800;54.272;18.558;2023-07-13T00:34:24;7.50;;;4.53;;
68806;SDS011;55800;54.272;18.558;2023-07-13T00:39:23;10.27;;;4.95;;
68806;SDS011;55800;54.272;18.558;2023-07-13T00:41:54;9.85;;;5.20;;
68806;SDS011;55800;54.272;18.558;2023-07-13T00:44:24;9.82;;;4.72;;
68806;SDS011;55800;54.272;18.558;2023-07-13T00:46:54;9.90;;;5.32;;
68806;SDS011;55800;54.272;18.558;2023-07-13T00:49:26;8.60;;;4.35;;
68806;SDS011;55800;54.272;18.558;2023-07-13T00:51:59;6.85;;;4.43;;
68806;SDS011;55800;54.272;18.558;2023-07-13T00:54:32;6.55;;;3.90;;
68806;SDS011;55800;54.272;18.558;2023-07-13T00:57:05;11.82;;;4.38;;
68806;SDS011;55800;54.272;18.558;2023-07-13T00:59:39;12.38;;;5.20;;
68806;SDS011;55800;54.272;18.558;2023-07-13T01:02:13;10.15;;;4.57;;
68806;SDS011;55800;54.272;18.558;2023-07-13T01:04:43;10.13;;;4.80;;
68806;SDS011;55800;54.272;18.558;2023-07-13T01:09:42;10.95;;;4.22;;
68806;SDS011;55800;54.272;18.558;2023-07-13T01:12:13;8.75;;;4.20;;
68806;SDS011;55800;54.272;18.558;2023-07-13T01:14:42;10.45;;;4.68;;
68806;SDS011;55800;54.272;18.558;2023-07-13T01:17:11;11.25;;;4.47;;
68806;SDS011;55800;54.272;18.558;2023-07-13T01:19:43;8.90;;;5.68;;
68806;SDS011;55800;54.272;18.558;2023-07-13T01:22:15;8.98;;;4.30;;
68806;SDS011;55800;54.272;18.558;2023-07-13T01:24:47;8.80;;;4.57;;
68806;SDS011;55800;54.272;18.558;2023-07-13T01:27:17;8.70;;;4.43;;
68806;SDS011;55800;54.272;18.558;2023-07-13T01:29:50;11.77;;;4.55;;
68806;SDS011;55800;54.272;18.558;2023-07-13T01:32:29;8.18;;;4.25;;
68806;SDS011;55800;54.272;18.558;2023-07-13T01:35:01;10.23;;;4.85;;
68806;SDS011;55800;54.272;18.558;2023-07-13T01:37:32;9.13;;;5.80;;
68806;SDS011;55800;54.272;18.558;2023-07-13T01:40:03;6.05;;;3.95;;
68806;SDS011;55800;54.272;18.558;2023-07-13T01:42:36;12.23;;;5.10;;
68806;SDS011;55800;54.272;18.558;2023-07-13T01:45:06;9.65;;;4.70;;
68806;SDS011;55800;54.272;18.558;2023-07-13T01:47:36;9.55;;;4.90;;
68806;SDS011;55800;54.272;18.558;2023-07-13T01:50:06;10.75;;;4.88;;
68806;SDS011;55800;54.272;18.558;2023-07-13T01:52:37;9.10;;;5.43;;
68806;SDS011;55800;54.272;18.558;2023-07-13T01:55:07;9.15;;;5.53;;
68806;SDS011;55800;54.272;18.558;2023-07-13T01:57:37;11.57;;;5.25;;
68806;SDS011;55800;54.272;18.558;2023-07-13T02:00:06;9.55;;;4.80;;
68806;SDS011;55800;54.272;18.558;2023-07-13T02:02:46;9.48;;;5.30;;
68806;SDS011;55800;54.272;18.558;2023-07-13T02:05:17;13.30;;;7.30;;
68806;SDS011;55800;54.272;18.558;2023-07-13T02:07:48;10.63;;;5.22;;
68806;SDS011;55800;54.272;18.558;2023-07-13T02:10:18;8.20;;;5.55;;
68806;SDS011;55800;54.272;18.558;2023-07-13T02:12:48;8.88;;;5.32;;
68806;SDS011;55800;54.272;18.558;2023-07-13T02:15:18;12.35;;;5.57;;
68806;SDS011;55800;54.272;18.558;2023-07-13T02:20:17;9.60;;;5.47;;
68806;SDS011;55800;54.272;18.558;2023-07-13T02:25:20;8.85;;;4.57;;
68806;SDS011;55800;54.272;18.558;2023-07-13T02:27:49;9.50;;;5.28;;
68806;SDS011;55800;54.272;18.558;2023-07-13T02:33:49;9.35;;;5.10;;
68806;SDS011;55800;54.272;18.558;2023-07-13T02:36:19;7.75;;;4.72;;
68806;SDS011;55800;54.272;18.558;2023-07-13T02:41:19;8.85;;;4.65;;
68806;SDS011;55800;54.272;18.558;2023-07-13T02:43:50;8.38;;;5.15;;
68806;SDS011;55800;54.272;18.558;2023-07-13T02:46:19;11.25;;;4.40;;
68806;SDS011;55800;54.272;18.558;2023-07-13T02:48:48;10.48;;;4.45;;
68806;SDS011;55800;54.272;18.558;2023-07-13T02:51:20;14.45;;;4.72;;
68806;SDS011;55800;54.272;18.558;2023-07-13T02:56:22;8.45;;;4.18;;
68806;SDS011;55800;54.272;18.558;2023-07-13T02:58:52;8.23;;;4.78;;
68806;SDS011;55800;54.272;18.558;2023-07-13T03:01:22;8.30;;;4.50;;
68806;SDS011;55800;54.272;18.558;2023-07-13T03:03:52;9.10;;;4.45;;
68806;SDS011;55800;54.272;18.558;2023-07-13T03:06:23;9.55;;;5.05;;
68806;SDS011;55800;54.272;18.558;2023-07-13T03:08:54;12.55;;;7.22;;
68806;SDS011;55800;54.272;18.558;2023-07-13T03:11:24;10.38;;;4.70;;
68806;SDS011;55800;54.272;18.558;2023-07-13T03:14:02;7.22;;;4.50;;
68806;SDS011;55800;54.272;18.558;2023-07-13T03:16:35;9.73;;;3.83;;
68806;SDS011;55800;54.272;18.558;2023-07-13T03:19:05;8.57;;;4.15;;
68806;SDS011;55800;54.272;18.558;2023-07-13T03:21:34;7.60;;;4.18;;
68806;SDS011;55800;54.272;18.558;2023-07-13T03:26:35;7.88;;;4.45;;
68806;SDS011;55800;54.272;18.558;2023-07-13T03:29:05;9.25;;;4.72;;
68806;SDS011;55800;54.272;18.558;2023-07-13T03:31:36;9.60;;;5.00;;
68806;SDS011;55800;54.272;18.558;2023-07-13T03:34:05;10.93;;;4.50;;
68806;SDS011;55800;54.272;18.558;2023-07-13T03:36:36;9.23;;;5.35;;
68806;SDS011;55800;54.272;18.558;2023-07-13T03:39:10;13.40;;;4.95;;
68806;SDS011;55800;54.272;18.558;2023-07-13T03:41:53;10.05;;;4.70;;
68806;SDS011;55800;54.272;18.558;2023-07-13T03:46:55;10.13;;;4.30;;
68806;SDS011;55800;54.272;18.558;2023-07-13T03:49:24;9.57;;;5.25;;
68806;SDS011;55800;54.272;18.558;2023-07-13T03:51:54;7.88;;;4.63;;
68806;SDS011;55800;54.272;18.558;2023-07-13T03:54:25;13.88;;;4.88;;
68806;SDS011;55800;54.272;18.558;2023-07-13T03:56:55;11.05;;;5.50;;
68806;SDS011;55800;54.272;18.558;2023-07-13T03:59:25;11.52;;;5.05;;
68806;SDS011;55800;54.272;18.558;2023-07-13T04:01:55;13.57;;;6.43;;
68806;SDS011;55800;54.272;18.558;2023-07-13T04:06:57;13.93;;;5.40;;
68806;SDS011;55800;54.272;18.558;2023-07-13T04:11:57;16.73;;;5.18;;
68806;SDS011;55800;54.272;18.558;2023-07-13T04:14:27;11.88;;;5.68;;
68806;SDS011;55800;54.272;18.558;2023-07-13T04:16:56;14.23;;;5.18;;
68806;SDS011;55800;54.272;18.558;2023-07-13T04:24:24;9.48;;;4.75;;
68806;SDS011;55800;54.272;18.558;2023-07-13T04:26:57;12.20;;;4.78;;
68806;SDS011;55800;54.272;18.558;2023-07-13T04:29:27;15.93;;;5.10;;
68806;SDS011;55800;54.272;18.558;2023-07-13T04:31:57;10.13;;;5.20;;
68806;SDS011;55800;54.272;18.558;2023-07-13T04:34:26;10.68;;;4.75;;
68806;SDS011;55800;54.272;18.558;2023-07-13T04:36:56;12.57;;;4.30;;
68806;SDS011;55800;54.272;18.558;2023-07-13T04:41:54;8.70;;;4.57;;
68806;SDS011;55800;54.272;18.558;2023-07-13T04:46:54;12.77;;;4.65;;
68806;SDS011;55800;54.272;18.558;2023-07-13T04:54:22;9.45;;;4.30;;
68806;SDS011;55800;54.272;18.558;2023-07-13T04:56:52;9.63;;;4.57;;
68806;SDS011;55800;54.272;18.558;2023-07-13T04:59:21;8.73;;;4.60;;
68806;SDS011;55800;54.272;18.558;2023-07-13T05:01:52;12.65;;;3.97;;
68806;SDS011;55800;54.272;18.558;2023-07-13T05:04:21;9.05;;;4.57;;
68806;SDS011;55800;54.272;18.558;2023-07-13T05:06:50;11.30;;;3.75;;
68806;SDS011;55800;54.272;18.558;2023-07-13T05:09:20;8.80;;;3.85;;
68806;SDS011;55800;54.272;18.558;2023-07-13T05:11:49;8.65;;;4.60;;
68806;SDS011;55800;54.272;18.558;2023-07-13T05:14:19;8.25;;;3.30;;
68806;SDS011;55800;54.272;18.558;2023-07-13T05:16:49;10.02;;;4.63;;
68806;SDS011;55800;54.272;18.558;2023-07-13T05:19:20;8.48;;;4.45;;
68806;SDS011;55800;54.272;18.558;2023-07-13T05:21:51;6.53;;;3.63;;
68806;SDS011;55800;54.272;18.558;2023-07-13T05:24:25;11.38;;;3.40;;
68806;SDS011;55800;54.272;18.558;2023-07-13T05:26:56;5.15;;;2.80;;
68806;SDS011;55800;54.272;18.558;2023-07-13T05:29:26;8.02;;;3.05;;
68806;SDS011;55800;54.272;18.558;2023-07-13T05:31:57;12.43;;;3.58;;
68806;SDS011;55800;54.272;18.558;2023-07-13T05:34:28;14.43;;;4.13;;
68806;SDS011;55800;54.272;18.558;2023-07-13T05:37:04;7.88;;;3.55;;
68806;SDS011;55800;54.272;18.558;2023-07-13T05:39:39;7.57;;;4.32;;
68806;SDS011;55800;54.272;18.558;2023-07-13T05:42:17;6.78;;;2.78;;
68806;SDS011;55800;54.272;18.558;2023-07-13T05:44:52;11.73;;;2.85;;
68806;SDS011;55800;54.272;18.558;2023-07-13T05:47:26;7.70;;;2.95;;
68806;SDS011;55800;54.272;18.558;2023-07-13T05:49:57;10.35;;;2.67;;
68806;SDS011;55800;54.272;18.558;2023-07-13T05:52:28;7.78;;;2.72;;
68806;SDS011;55800;54.272;18.558;2023-07-13T05:54:58;7.43;;;2.38;;
68806;SDS011;55800;54.272;18.558;2023-07-13T05:57:31;6.22;;;2.30;;
68806;SDS011;55800;54.272;18.558;2023-07-13T06:00:00;6.88;;;3.05;;
68806;SDS011;55800;54.272;18.558;2023-07-13T06:02:39;8.10;;;2.80;;
68806;SDS011;55800;54.272;18.558;2023-07-13T06:05:08;7.28;;;2.88;;
68806;SDS011;55800;54.272;18.558;2023-07-13T06:07:38;8.45;;;2.42;;
68806;SDS011;55800;54.272;18.558;2023-07-13T06:10:08;6.22;;;2.63;;
68806;SDS011;55800;54.272;18.558;2023-07-13T06:12:38;8.48;;;2.47;;
68806;SDS011;55800;54.272;18.558;2023-07-13T06:15:07;5.15;;;1.73;;
68806;SDS011;55800;54.272;18.558;2023-07-13T06:17:38;8.18;;;2.22;;
68806;SDS011;55800;54.272;18.558;2023-07-13T06:20:09;10.57;;;2.97;;
68806;SDS011;55800;54.272;18.558;2023-07-13T06:22:39;9.75;;;2.78;;
68806;SDS011;55800;54.272;18.558;2023-07-13T06:25:09;7.15;;;2.97;;
68806;SDS011;55800;54.272;18.558;2023-07-13T06:27:39;9.80;;;3.40;;
68806;SDS011;55800;54.272;18.558;2023-07-13T06:30:08;6.65;;;2.30;;
68806;SDS011;55800;54.272;18.558;2023-07-13T06:32:41;5.47;;;1.90;;
68806;SDS011;55800;54.272;18.558;2023-07-13T06:35:11;6.10;;;2.40;;
68806;SDS011;55800;54.272;18.558;2023-07-13T06:37:41;6.10;;;2.20;;
68806;SDS011;55800;54.272;18.558;2023-07-13T06:40:11;6.97;;;1.67;;
68806;SDS011;55800;54.272;18.558;2023-07-13T06:42:41;5.68;;;2.78;;
68806;SDS011;55800;54.272;18.558;2023-07-13T06:45:10;7.10;;;1.80;;
68806;SDS011;55800;54.272;18.558;2023-07-13T06:47:42;10.55;;;3.83;;
68806;SDS011;55800;54.272;18.558;2023-07-13T06:50:12;5.65;;;2.03;;
68806;SDS011;55800;54.272;18.558;2023-07-13T06:52:41;4.15;;;1.73;;
68806;SDS011;55800;54.272;18.558;2023-07-13T06:55:10;4.78;;;2.10;;
68806;SDS011;55800;54.272;18.558;2023-07-13T06:57:40;5.38;;;1.77;;
68806;SDS011;55800;54.272;18.558;2023-07-13T07:00:10;5.07;;;2.45;;
68806;SDS011;55800;54.272;18.558;2023-07-13T07:02:40;7.10;;;2.15;;
68806;SDS011;55800;54.272;18.558;2023-07-13T07:05:11;5.93;;;2.42;;
68806;SDS011;55800;54.272;18.558;2023-07-13T07:07:41;8.63;;;2.40;;
68806;SDS011;55800;54.272;18.558;2023-07-13T07:10:10;5.35;;;2.10;;
68806;SDS011;55800;54.272;18.558;2023-07-13T07:12:39;5.97;;;2.50;;
68806;SDS011;55800;54.272;18.558;2023-07-13T07:15:09;4.25;;;3.22;;
68806;SDS011;55800;54.272;18.558;2023-07-13T07:17:39;7.03;;;3.40;;
68806;SDS011;55800;54.272;18.558;2023-07-13T07:20:10;3.42;;;1.55;;
68806;SDS011;55800;54.272;18.558;2023-07-13T07:22:40;5.97;;;2.05;;
68806;SDS011;55800;54.272;18.558;2023-07-13T07:25:09;9.35;;;2.53;;
68806;SDS011;55800;54.272;18.558;2023-07-13T07:27:39;4.35;;;1.85;;
68806;SDS011;55800;54.272;18.558;2023-07-13T07:30:11;9.45;;;1.95;;
68806;SDS011;55800;54.272;18.558;2023-07-13T07:32:45;6.90;;;2.20;;
68806;SDS011;55800;54.272;18.558;2023-07-13T07:35:18;5.82;;;2.28;;
68806;SDS011;55800;54.272;18.558;2023-07-13T07:37:48;10.13;;;3.10;;
68806;SDS011;55800;54.272;18.558;2023-07-13T07:40:17;5.20;;;2.13;;
68806;SDS011;55800;54.272;18.558;2023-07-13T07:42:50;4.20;;;2.20;;
68806;SDS011;55800;54.272;18.558;2023-07-13T07:45:19;6.30;;;2.35;;
68806;SDS011;55800;54.272;18.558;2023-07-13T07:47:49;5.07;;;2.15;;
68806;SDS011;55800;54.272;18.558;2023-07-13T07:50:19;7.28;;;1.90;;
68806;SDS011;55800;54.272;18.558;2023-07-13T07:52:49;4.00;;;1.80;;
68806;SDS011;55800;54.272;18.558;2023-07-13T07:55:18;9.07;;;3.47;;
68806;SDS011;55800;54.272;18.558;2023-07-13T07:57:51;5.72;;;1.83;;
68806;SDS011;55800;54.272;18.558;2023-07-13T08:00:23;7.32;;;1.88;;
68806;SDS011;55800;54.272;18.558;2023-07-13T08:03:12;4.82;;;1.90;;
68806;SDS011;55800;54.272;18.558;2023-07-13T08:05:46;4.95;;;2.28;;
68806;SDS011;55800;54.272;18.558;2023-07-13T08:08:18;4.07;;;1.65;;
68806;SDS011;55800;54.272;18.558;2023-07-13T08:10:47;6.82;;;2.45;;
68806;SDS011;55800;54.272;18.558;2023-07-13T08:13:17;7.03;;;2.53;;
68806;SDS011;55800;54.272;18.558;2023-07-13T08:15:46;5.18;;;1.67;;
68806;SDS011;55800;54.272;18.558;2023-07-13T08:18:16;4.10;;;2.10;;
68806;SDS011;55800;54.272;18.558;2023-07-13T08:20:47;3.80;;;2.25;;
68806;SDS011;55800;54.272;18.558;2023-07-13T08:23:17;7.07;;;2.97;;
68806;SDS011;55800;54.272;18.558;2023-07-13T08:25:50;3.78;;;1.60;;
68806;SDS011;55800;54.272;18.558;2023-07-13T08:28:20;3.78;;;2.42;;
68806;SDS011;55800;54.272;18.558;2023-07-13T08:30:49;6.72;;;2.00;;
68806;SDS011;55800;54.272;18.558;2023-07-13T08:33:20;4.40;;;1.63;;
68806;SDS011;55800;54.272;18.558;2023-07-13T08:35:53;5.22;;;1.67;;
68806;SDS011;55800;54.272;18.558;2023-07-13T08:38:22;3.83;;;1.80;;
68806;SDS011;55800;54.272;18.558;2023-07-13T08:40:52;4.15;;;1.75;;
68806;SDS011;55800;54.272;18.558;2023-07-13T08:43:25;3.03;;;1.60;;
68806;SDS011;55800;54.272;18.558;2023-07-13T08:45:58;5.22;;;1.88;;
68806;SDS011;55800;54.272;18.558;2023-07-13T08:51:11;4.28;;;1.63;;
68806;SDS011;55800;54.272;18.558;2023-07-13T08:53:54;8.52;;;1.98;;
68806;SDS011;55800;54.272;18.558;2023-07-13T08:56:28;6.05;;;1.83;;
68806;SDS011;55800;54.272;18.558;2023-07-13T08:59:00;5.85;;;2.30;;
68806;SDS011;55800;54.272;18.558;2023-07-13T09:01:43;2.47;;;1.50;;
68806;SDS011;55800;54.272;18.558;2023-07-13T09:04:23;5.95;;;1.40;;
68806;SDS011;55800;54.272;18.558;2023-07-13T09:07:01;4.57;;;1.23;;
68806;SDS011;55800;54.272;18.558;2023-07-13T09:09:42;4.90;;;1.45;;
68806;SDS011;55800;54.272;18.558;2023-07-13T09:12:23;11.07;;;2.97;;
68806;SDS011;55800;54.272;18.558;2023-07-13T09:15:01;4.38;;;2.17;;
68806;SDS011;55800;54.272;18.558;2023-07-13T09:17:34;7.63;;;2.08;;
68806;SDS011;55800;54.272;18.558;2023-07-13T09:20:10;4.63;;;1.77;;
68806;SDS011;55800;54.272;18.558;2023-07-13T09:22:52;4.22;;;1.50;;
68806;SDS011;55800;54.272;18.558;2023-07-13T09:25:23;4.65;;;1.65;;
68806;SDS011;55800;54.272;18.558;2023-07-13T09:27:58;5.38;;;1.92;;
68806;SDS011;55800;54.272;18.558;2023-07-13T09:30:33;3.50;;;1.65;;
68806;SDS011;55800;54.272;18.558;2023-07-13T09:33:06;3.38;;;1.58;;
68806;SDS011;55800;54.272;18.558;2023-07-13T09:35:36;4.15;;;1.20;;
68806;SDS011;55800;54.272;18.558;2023-07-13T09:38:11;3.38;;;1.13;;
68806;SDS011;55800;54.272;18.558;2023-07-13T09:40:53;3.60;;;1.40;;
68806;SDS011;55800;54.272;18.558;2023-07-13T09:43:36;2.90;;;2.03;;
68806;SDS011;55800;54.272;18.558;2023-07-13T09:46:13;2.95;;;1.30;;
68806;SDS011;55800;54.272;18.558;2023-07-13T09:48:49;3.33;;;1.40;;
68806;SDS011;55800;54.272;18.558;2023-07-13T09:51:19;4.93;;;1.98;;
68806;SDS011;55800;54.272;18.558;2023-07-13T09:53:50;3.42;;;1.45;;
68806;SDS011;55800;54.272;18.558;2023-07-13T09:56:20;4.95;;;1.42;;
68806;SDS011;55800;54.272;18.558;2023-07-13T09:58:50;3.78;;;1.42;;
68806;SDS011;55800;54.272;18.558;2023-07-13T10:01:30;2.97;;;1.67;;
68806;SDS011;55800;54.272;18.558;2023-07-13T10:04:02;4.13;;;2.72;;
68806;SDS011;55800;54.272;18.558;2023-07-13T10:06:41;5.50;;;2.38;;
68806;SDS011;55800;54.272;18.558;2023-07-13T10:09:16;4.10;;;2.25;;
68806;SDS011;55800;54.272;18.558;2023-07-13T10:11:46;5.10;;;1.50;;
68806;SDS011;55800;54.272;18.558;2023-07-13T10:14:20;3.17;;;1.52;;
68806;SDS011;55800;54.272;18.558;2023-07-13T10:16:55;4.63;;;1.67;;
68806;SDS011;55800;54.272;18.558;2023-07-13T10:19:29;6.20;;;1.90;;
68806;SDS011;55800;54.272;18.558;2023-07-13T10:22:02;3.00;;;1.25;;
68806;SDS011;55800;54.272;18.558;2023-07-13T10:24:44;2.45;;;1.40;;
68806;SDS011;55800;54.272;18.558;2023-07-13T10:27:15;7.65;;;1.50;;
68806;SDS011;55800;54.272;18.558;2023-07-13T10:29:46;5.82;;;1.70;;
68806;SDS011;55800;54.272;18.558;2023-07-13T10:32:19;4.30;;;1.63;;
68806;SDS011;55800;54.272;18.558;2023-07-13T10:34:51;3.38;;;2.05;;
68806;SDS011;55800;54.272;18.558;2023-07-13T10:37:24;7.45;;;1.13;;
68806;SDS011;55800;54.272;18.558;2023-07-13T10:39:58;4.35;;;1.67;;
68806;SDS011;55800;54.272;18.558;2023-07-13T10:42:32;5.13;;;1.73;;
68806;SDS011;55800;54.272;18.558;2023-07-13T10:45:11;2.08;;;1.00;;
68806;SDS011;55800;54.272;18.558;2023-07-13T10:47:42;3.72;;;1.00;;
68806;SDS011;55800;54.272;18.558;2023-07-13T10:50:15;3.95;;;1.23;;
68806;SDS011;55800;54.272;18.558;2023-07-13T10:52:49;4.38;;;1.23;;
68806;SDS011;55800;54.272;18.558;2023-07-13T10:55:31;2.67;;;1.17;;
68806;SDS011;55800;54.272;18.558;2023-07-13T10:58:11;2.90;;;1.35;;
68806;SDS011;55800;54.272;18.558;2023-07-13T11:00:43;4.18;;;1.08;;
68806;SDS011;55800;54.272;18.558;2023-07-13T11:03:17;4.82;;;1.00;;
68806;SDS011;55800;54.272;18.558;2023-07-13T11:05:50;3.60;;;1.50;;
68806;SDS011;55800;54.272;18.558;2023-07-13T11:08:33;2.40;;;1.40;;
68806;SDS011;55800;54.272;18.558;2023-07-13T11:14:13;5.28;;;1.55;;
68806;SDS011;55800;54.272;18.558;2023-07-13T11:16:55;3.95;;;1.67;;
68806;SDS011;55800;54.272;18.558;2023-07-13T11:22:24;2.80;;;1.65;;
68806;SDS011;55800;54.272;18.558;2023-07-13T11:25:21;4.03;;;1.77;;
68806;SDS011;55800;54.272;18.558;2023-07-13T11:28:07;2.13;;;1.30;;
68806;SDS011;55800;54.272;18.558;2023-07-13T11:30:46;6.55;;;1.40;;
68806;SDS011;55800;54.272;18.558;2023-07-13T11:33:18;3.45;;;1.27;;
68806;SDS011;55800;54.272;18.558;2023-07-13T11:35:57;5.40;;;1.40;;
68806;SDS011;55800;54.272;18.558;2023-07-13T11:38:51;2.13;;;0.85;;
68806;SDS011;55800;54.272;18.558;2023-07-13T11:41:28;6.50;;;1.45;;
68806;SDS011;55800;54.272;18.558;2023-07-13T11:44:11;3.97;;;1.25;;
68806;SDS011;55800;54.272;18.558;2023-07-13T11:46:46;5.43;;;1.50;;
68806;SDS011;55800;54.272;18.558;2023-07-13T11:49:24;3.45;;;1.30;;
68806;SDS011;55800;54.272;18.558;2023-07-13T11:51:59;2.38;;;1.25;;
68806;SDS011;55800;54.272;18.558;2023-07-13T11:54:30;5.30;;;1.67;;
68806;SDS011;55800;54.272;18.558;2023-07-13T11:57:01;2.97;;;0.98;;
68806;SDS011;55800;54.272;18.558;2023-07-13T11:59:39;3.75;;;1.08;;
68806;SDS011;55800;54.272;18.558;2023-07-13T12:02:13;7.25;;;1.30;;
68806;SDS011;55800;54.272;18.558;2023-07-13T12:04:50;6.57;;;1.50;;
68806;SDS011;55800;54.272;18.558;2023-07-13T12:07:20;5.45;;;1.88;;
68806;SDS011;55800;54.272;18.558;2023-07-13T12:09:50;3.75;;;1.20;;
68806;SDS011;55800;54.272;18.558;2023-07-13T12:12:21;3.72;;;1.30;;
68806;SDS011;55800;54.272;18.558;2023-07-13T12:14:52;2.53;;;1.15;;
68806;SDS011;55800;54.272;18.558;2023-07-13T12:17:22;4.82;;;1.35;;
68806;SDS011;55800;54.272;18.558;2023-07-13T12:19:53;4.10;;;1.38;;
68806;SDS011;55800;54.272;18.558;2023-07-13T12:22:23;3.03;;;1.08;;
68806;SDS011;55800;54.272;18.558;2023-07-13T12:24:53;2.15;;;1.02;;
68806;SDS011;55800;54.272;18.558;2023-07-13T12:27:25;3.58;;;1.10;;
68806;SDS011;55800;54.272;18.558;2023-07-13T12:29:59;2.10;;;1.23;;
68806;SDS011;55800;54.272;18.558;2023-07-13T12:32:32;3.50;;;1.30;;
68806;SDS011;55800;54.272;18.558;2023-07-13T12:35:12;6.03;;;1.55;;
68806;SDS011;55800;54.272;18.558;2023-07-13T12:37:43;2.63;;;1.33;;
68806;SDS011;55800;54.272;18.558;2023-07-13T12:40:13;2.70;;;1.30;;
68806;SDS011;55800;54.272;18.558;2023-07-13T12:42:46;2.15;;;1.05;;
68806;SDS011;55800;54.272;18.558;2023-07-13T12:45:20;7.28;;;1.50;;
68806;SDS011;55800;54.272;18.558;2023-07-13T12:47:53;2.85;;;1.58;;
68806;SDS011;55800;54.272;18.558;2023-07-13T12:50:29;7.88;;;1.35;;
68806;SDS011;55800;54.272;18.558;2023-07-13T12:53:05;8.18;;;2.67;;
68806;SDS011;55800;54.272;18.558;2023-07-13T12:55:40;3.28;;;1.65;;
68806;SDS011;55800;54.272;18.558;2023-07-13T12:58:13;4.75;;;2.15;;
68806;SDS011;55800;54.272;18.558;2023-07-13T13:00:56;6.90;;;2.20;;
68806;SDS011;55800;54.272;18.558;2023-07-13T13:03:29;8.27;;;2.20;;
68806;SDS011;55800;54.272;18.558;2023-07-13T13:06:01;5.88;;;2.05;;
68806;SDS011;55800;54.272;18.558;2023-07-13T13:08:32;6.57;;;1.65;;
68806;SDS011;55800;54.272;18.558;2023-07-13T13:11:03;8.00;;;1.73;;
68806;SDS011;55800;54.272;18.558;2023-07-13T13:13:33;4.18;;;1.80;;
68806;SDS011;55800;54.272;18.558;2023-07-13T13:16:07;5.57;;;1.88;;
68806;SDS011;55800;54.272;18.558;2023-07-13T13:18:40;5.50;;;1.58;;
68806;SDS011;55800;54.272;18.558;2023-07-13T13:21:10;6.28;;;2.08;;
68806;SDS011;55800;54.272;18.558;2023-07-13T13:23:40;6.20;;;2.20;;
68806;SDS011;55800;54.272;18.558;2023-07-13T13:26:10;5.60;;;1.80;;
68806;SDS011;55800;54.272;18.558;2023-07-13T13:28:41;5.38;;;2.40;;
68806;SDS011;55800;54.272;18.558;2023-07-13T13:31:13;12.15;;;2.17;;
68806;SDS011;55800;54.272;18.558;2023-07-13T13:33:43;6.18;;;1.98;;
68806;SDS011;55800;54.272;18.558;2023-07-13T13:36:15;6.28;;;1.70;;
68806;SDS011;55800;54.272;18.558;2023-07-13T13:38:47;6.35;;;1.58;;
68806;SDS011;55800;54.272;18.558;2023-07-13T13:41:17;8.73;;;1.85;;
68806;SDS011;55800;54.272;18.558;2023-07-13T13:43:46;5.35;;;1.98;;
68806;SDS011;55800;54.272;18.558;2023-07-13T13:46:18;11.10;;;2.28;;
68806;SDS011;55800;54.272;18.558;2023-07-13T13:48:52;5.07;;;1.42;;
68806;SDS011;55800;54.272;18.558;2023-07-13T13:51:23;6.30;;;2.33;;
68806;SDS011;55800;54.272;18.558;2023-07-13T13:53:53;8.38;;;1.83;;
68806;SDS011;55800;54.272;18.558;2023-07-13T13:56:22;6.70;;;1.80;;
68806;SDS011;55800;54.272;18.558;2023-07-13T13:58:52;4.43;;;1.48;;
68806;SDS011;55800;54.272;18.558;2023-07-13T14:01:22;5.22;;;1.42;;
68806;SDS011;55800;54.272;18.558;2023-07-13T14:03:52;5.85;;;1.77;;
68806;SDS011;55800;54.272;18.558;2023-07-13T14:06:22;7.85;;;1.58;;
68806;SDS011;55800;54.272;18.558;2023-07-13T14:08:52;5.93;;;1.63;;
68806;SDS011;55800;54.272;18.558;2023-07-13T14:11:22;3.95;;;1.70;;
68806;SDS011;55800;54.272;18.558;2023-07-13T14:13:53;8.55;;;1.92;;
68806;SDS011;55800;54.272;18.558;2023-07-13T14:16:26;5.85;;;1.70;;
68806;SDS011;55800;54.272;18.558;2023-07-13T14:19:00;6.32;;;1.83;;
68806;SDS011;55800;54.272;18.558;2023-07-13T14:21:29;4.20;;;1.42;;
68806;SDS011;55800;54.272;18.558;2023-07-13T14:23:59;2.50;;;1.30;;
68806;SDS011;55800;54.272;18.558;2023-07-13T14:26:29;3.08;;;1.33;;
68806;SDS011;55800;54.272;18.558;2023-07-13T14:29:04;8.43;;;1.42;;
68806;SDS011;55800;54.272;18.558;2023-07-13T14:31:43;4.40;;;2.05;;
68806;SDS011;55800;54.272;18.558;2023-07-13T14:34:13;7.70;;;1.65;;
68806;SDS011;55800;54.272;18.558;2023-07-13T14:36:44;4.10;;;1.48;;
68806;SDS011;55800;54.272;18.558;2023-07-13T14:39:18;5.97;;;1.67;;
68806;SDS011;55800;54.272;18.558;2023-07-13T14:41:50;2.53;;;1.10;;
68806;SDS011;55800;54.272;18.558;2023-07-13T14:44:21;5.07;;;1.30;;
68806;SDS011;55800;54.272;18.558;2023-07-13T14:46:54;10.10;;;1.60;;
68806;SDS011;55800;54.272;18.558;2023-07-13T14:49:30;7.93;;;1.40;;
68806;SDS011;55800;54.272;18.558;2023-07-13T14:54:39;5.57;;;1.23;;
68806;SDS011;55800;54.272;18.558;2023-07-13T14:57:10;7.65;;;1.15;;
68806;SDS011;55800;54.272;18.558;2023-07-13T14:59:41;2.90;;;1.00;;
68806;SDS011;55800;54.272;18.558;2023-07-13T15:02:18;3.80;;;1.40;;
68806;SDS011;55800;54.272;18.558;2023-07-13T15:04:53;5.38;;;1.30;;
68806;SDS011;55800;54.272;18.558;2023-07-13T15:07:22;3.53;;;1.25;;
68806;SDS011;55800;54.272;18.558;2023-07-13T15:09:52;4.25;;;1.20;;
68806;SDS011;55800;54.272;18.558;2023-07-13T15:12:21;9.30;;;1.13;;
68806;SDS011;55800;54.272;18.558;2023-07-13T15:14:51;3.47;;;0.98;;
68806;SDS011;55800;54.272;18.558;2023-07-13T15:17:26;2.83;;;1.20;;
68806;SDS011;55800;54.272;18.558;2023-07-13T15:20:00;4.82;;;1.08;;
68806;SDS011;55800;54.272;18.558;2023-07-13T15:22:32;4.35;;;1.52;;
68806;SDS011;55800;54.272;18.558;2023-07-13T15:25:01;2.83;;;0.88;;
68806;SDS011;55800;54.272;18.558;2023-07-13T15:27:33;2.97;;;0.85;;
68806;SDS011;55800;54.272;18.558;2023-07-13T15:30:04;4.60;;;1.13;;
68806;SDS011;55800;54.272;18.558;2023-07-13T15:32:35;3.90;;;1.00;;
68806;SDS011;55800;54.272;18.558;2023-07-13T15:35:09;5.18;;;1.40;;
68806;SDS011;55800;54.272;18.558;2023-07-13T15:37:43;4.88;;;1.10;;
68806;SDS011;55800;54.272;18.558;2023-07-13T15:40:14;4.45;;;1.10;;
68806;SDS011;55800;54.272;18.558;2023-07-13T15:42:44;2.58;;;1.15;;
68806;SDS011;55800;54.272;18.558;2023-07-13T15:45:15;4.68;;;1.42;;
68806;SDS011;55800;54.272;18.558;2023-07-13T15:47:46;2.60;;;0.90;;
68806;SDS011;55800;54.272;18.558;2023-07-13T15:50:17;3.70;;;1.38;;
68806;SDS011;55800;54.272;18.558;2023-07-13T15:52:49;2.33;;;0.90;;
68806;SDS011;55800;54.272;18.558;2023-07-13T15:55:26;3.50;;;1.45;;
68806;SDS011;55800;54.272;18.558;2023-07-13T15:57:55;4.07;;;1.17;;
68806;SDS011;55800;54.272;18.558;2023-07-13T16:00:27;4.18;;;1.00;;
68806;SDS011;55800;54.272;18.558;2023-07-13T16:02:57;4.85;;;1.20;;